FMMIFMMS

Guest
Details From FMMI - IVATO
To FMMS - SAINTE MARIE
Flight Number -
Tags generated
Created
Modified
Stats Distance 174 nm / 322 km
Max Altitude 21,400 ft / 6,523 m
Waypoints 3
Social Downloads 0
Likes 0
Share VATSIM

Download

Looking for another format? Having issues loading an existing format? Contact us
Advertisement - Login to hide

Notes

Basic altitude profile: - Ascent Rate: 2500ft/min - Ascent Speed: 250kts - Cruise Altitude: 35000ft - Cruise Speed: 420kts - Descent Rate: 1500ft/min - Descent Speed: 250kts Options: - Use NATs: yes - Use PACOTS: yes - Use low airways: yes - Use high airways: yes

Route

FMMI IXARI FMMS

ID Type Via Altitude Latitude Longitude Leg Dist Tot Dist Heading (true) Name
O FMMI APT - 0 ft / 0 m -18.79695˚ 47.47881˚ - 0 nm - IVATO
IXARI FIX - 21,400 ft / 6,523 m -18.37944˚ 48.69694˚ 73 nm 73 nm 70° / 70° -
O FMMS APT - 0 ft / 0 m -17.09426˚ 49.81615˚ 100 nm 174 nm 40° / 40° SAINTE MARIE

Altitude Profile

Advertisement - Login to hide

Weather


0- 5 10 15 20 25 30 35+ Temperature / ° C

Clouds and Precipitation
Forecast for 2017-12-14 06:00 UTC. Updated an hour ago

Ground ~20,000 ft ~40,000 ft Winds

FMMI

Details ICAO FMMI (TNR)
Name IVATO
Region Comoros, Mayotte, Réunion and Madagascar
Timezone Indian/Antananarivo (UTC+3.0)
Stats Elevation 4,198 ft / 1,280 m (AMSL)
Location -18.796950° 47.478806°
Runways 1
Magnetic Variation 15.161° W

METAR

FMMI 140200Z 00000KT 9999 FEW017 SCT020 17/17 Q1021 NOSIG

Decode

TAF

TAF FMMI 132300Z 1400/1506 00000KT 9999 FEW007 SCT017 BKN020 BECMG 1406/1409 08010KT PROB30 TEMPO 1415/1501 4500 TSRA BKN015CB SCT020 BECMG 1416/1419 00000KT

Decode

Departure Runways

ID Width Length Bearing (true) Bearing (mag) Surface Threshold Offset Overrun Length
11 148 ft / 45 m 10,167 ft / 3,099 m 98.92° 114.08° Asphalt 0 ft / 0 m 90 ft / 27 m
29 148 ft / 45 m 10,167 ft / 3,099 m 278.91° 294.07° Asphalt 0 ft / 0 m 90 ft / 27 m

FMMS

Details ICAO FMMS (SMS)
Name SAINTE MARIE
Region Comoros, Mayotte, Réunion and Madagascar
Timezone Indian/Antananarivo (UTC+3.0)
Stats Elevation 7 ft / 2 m (AMSL)
Location -17.094260° 49.816153°
Runways 1
Magnetic Variation 13.692° W

METAR

Not found

TAF

TAF TAF FMMS 132300Z 1400/1424 06005KT 9999 FEW007 SCT017CB BKN033 PROB40 TEMPO 1400/1424 3500 TSRA BECMG 1405/1408 16010KT

Decode

Destination Runways

ID Width Length Bearing (true) Bearing (mag) Surface Threshold Offset Overrun Length
01 98 ft / 30 m 3,468 ft / 1,057 m 353.60° 7.29° Asphalt 0 ft / 0 m 0 ft / 0 m
19 98 ft / 30 m 3,468 ft / 1,057 m 173.60° 187.29° Asphalt 290 ft / 88 m 100 ft / 30 m

Popular Alternatives